createdAt,value
2019-05-30T00:01:06.303Z,4.28
2019-05-30T00:03:37.877Z,4.47
2019-05-30T00:06:12.326Z,4.25
2019-05-30T00:08:45.493Z,4.85
2019-05-30T00:11:15.875Z,4.05
2019-05-30T00:13:48.340Z,4.22
2019-05-30T00:16:20.022Z,4.40
2019-05-30T00:18:52.256Z,4.58
2019-05-30T00:21:23.329Z,4.50
2019-05-30T00:23:55.762Z,4.45
2019-05-30T00:26:29.485Z,3.92
2019-05-30T00:28:58.895Z,3.98
2019-05-30T00:31:28.280Z,4.12
2019-05-30T00:33:57.937Z,4.67
2019-05-30T00:36:27.468Z,4.37
2019-05-30T00:38:57.678Z,5.05
2019-05-30T00:41:27.183Z,5.10
2019-05-30T00:43:57.859Z,4.50
2019-05-30T00:46:27.232Z,4.53
2019-05-30T00:48:56.644Z,5.50
2019-05-30T00:51:26.307Z,3.62
2019-05-30T00:53:56.466Z,3.72
2019-05-30T00:56:26.009Z,4.60
2019-05-30T00:58:56.466Z,5.08
2019-05-30T01:01:26.282Z,4.22
2019-05-30T01:03:56.619Z,3.92
2019-05-30T01:06:26.163Z,3.90
2019-05-30T01:08:56.910Z,5.17
2019-05-30T01:11:26.330Z,4.30
2019-05-30T01:13:56.947Z,3.45
2019-05-30T01:16:26.441Z,3.30
2019-05-30T01:18:56.928Z,2.70
2019-05-30T01:21:26.627Z,2.98
2019-05-30T01:23:57.118Z,2.85
2019-05-30T01:26:26.621Z,3.45
2019-05-30T01:28:57.250Z,2.80
2019-05-30T01:31:26.823Z,3.08
2019-05-30T01:33:57.409Z,3.00
2019-05-30T01:36:26.880Z,2.47
2019-05-30T01:38:57.586Z,2.52
2019-05-30T01:41:27.954Z,2.83
2019-05-30T01:43:57.748Z,2.95
2019-05-30T01:46:27.383Z,2.65
2019-05-30T01:48:58.077Z,3.27
2019-05-30T01:51:27.828Z,2.87
2019-05-30T01:53:58.301Z,2.90
2019-05-30T01:56:27.885Z,2.98
2019-05-30T01:58:58.555Z,3.08
2019-05-30T02:01:28.101Z,2.80
2019-05-30T02:03:58.910Z,3.05
2019-05-30T02:06:28.663Z,2.92
2019-05-30T02:08:59.118Z,3.37
2019-05-30T02:11:29.084Z,2.58
2019-05-30T02:13:59.558Z,2.55
2019-05-30T02:16:28.983Z,3.42
2019-05-30T02:18:59.473Z,2.83
2019-05-30T02:21:29.188Z,3.27
2019-05-30T02:23:59.710Z,3.77
2019-05-30T02:26:29.193Z,3.20
2019-05-30T02:28:58.582Z,2.72
2019-05-30T02:31:39.210Z,4.22
2019-05-30T02:34:00.830Z,2.87
2019-05-30T02:36:30.323Z,2.70
2019-05-30T02:39:00.808Z,2.85
2019-05-30T02:41:30.313Z,2.98
2019-05-30T02:44:01.193Z,2.90
2019-05-30T02:46:30.995Z,3.25
2019-05-30T02:49:03.912Z,3.10
2019-05-30T02:51:31.532Z,2.58
2019-05-30T02:54:01.534Z,4.50
2019-05-30T02:56:31.062Z,3.25
2019-05-30T02:59:01.475Z,3.30
2019-05-30T03:01:31.178Z,3.47
2019-05-30T03:04:01.908Z,3.17
2019-05-30T03:06:31.725Z,2.98
2019-05-30T03:09:01.938Z,2.55
2019-05-30T03:11:31.846Z,3.50
2019-05-30T03:14:02.134Z,3.02
2019-05-30T03:16:32.596Z,3.47
2019-05-30T03:19:02.049Z,2.90
2019-05-30T03:21:31.523Z,2.75
2019-05-30T03:24:02.799Z,3.12
2019-05-30T03:26:32.252Z,3.10
2019-05-30T03:29:02.756Z,3.47
2019-05-30T03:31:35.273Z,2.50
2019-05-30T03:34:12.259Z,3.10
2019-05-30T03:36:36.245Z,3.10
2019-05-30T03:39:07.738Z,2.33
2019-05-30T03:41:38.350Z,2.90
2019-05-30T03:44:09.007Z,2.67
2019-05-30T03:46:42.242Z,3.25
2019-05-30T03:49:15.180Z,3.90
2019-05-30T03:51:46.353Z,2.98
2019-05-30T03:54:16.290Z,2.90
2019-05-30T03:56:48.557Z,3.27
2019-05-30T03:59:25.659Z,2.55
2019-05-30T04:02:08.931Z,2.80
2019-05-30T04:04:42.792Z,2.70
2019-05-30T04:07:16.305Z,3.00
2019-05-30T04:09:48.511Z,3.40
2019-05-30T04:12:33.604Z,3.10
2019-05-30T04:15:09.877Z,3.27
2019-05-30T04:17:39.261Z,2.47
2019-05-30T04:20:11.320Z,3.40
2019-05-30T04:22:41.839Z,2.53
2019-05-30T04:25:12.553Z,3.00
2019-05-30T04:27:41.977Z,3.50
2019-05-30T04:30:11.926Z,2.37
2019-05-30T04:32:41.399Z,3.00
2019-05-30T04:35:12.343Z,3.00
2019-05-30T04:37:41.800Z,3.33
2019-05-30T04:40:11.761Z,4.27
2019-05-30T04:42:42.333Z,3.00
2019-05-30T04:45:13.340Z,2.93
2019-05-30T04:47:43.024Z,3.27
2019-05-30T04:50:16.183Z,3.40
2019-05-30T04:52:45.908Z,3.83
2019-05-30T04:55:17.465Z,3.27
2019-05-30T04:57:46.551Z,3.07
2019-05-30T05:00:17.089Z,3.40
2019-05-30T05:02:46.587Z,3.07
2019-05-30T05:05:22.563Z,3.23
2019-05-30T05:07:47.830Z,3.07
2019-05-30T05:10:18.237Z,4.10
2019-05-30T05:12:47.818Z,4.00
2019-05-30T05:15:18.555Z,3.63
2019-05-30T05:17:48.191Z,2.87
2019-05-30T05:20:19.340Z,3.40
2019-05-30T05:22:48.999Z,4.50
2019-05-30T05:25:19.491Z,3.20
2019-05-30T05:27:48.906Z,3.80
2019-05-30T05:30:20.208Z,3.60
2019-05-30T05:32:49.780Z,3.20
2019-05-30T05:35:28.321Z,2.73
2019-05-30T05:37:57.943Z,3.17
2019-05-30T05:40:28.489Z,2.43
2019-05-30T05:42:58.047Z,2.93
2019-05-30T05:45:28.556Z,2.77
2019-05-30T05:47:58.363Z,2.85
2019-05-30T05:50:28.550Z,2.77
2019-05-30T05:52:57.898Z,3.10
2019-05-30T05:55:26.952Z,2.87
2019-05-30T05:57:56.010Z,2.80
2019-05-30T06:00:25.363Z,2.60
2019-05-30T06:02:54.472Z,2.92
2019-05-30T06:05:24.329Z,3.40
2019-05-30T06:07:53.517Z,2.75
2019-05-30T06:10:23.728Z,2.80
2019-05-30T06:12:52.790Z,2.90
2019-05-30T06:15:22.883Z,2.98
2019-05-30T06:17:52.068Z,2.77
2019-05-30T06:20:21.380Z,2.50
2019-05-30T06:22:50.445Z,2.70
2019-05-30T06:25:21.769Z,3.60
2019-05-30T06:27:50.410Z,3.60
2019-05-30T06:30:20.319Z,3.22
2019-05-30T06:32:49.561Z,3.22
2019-05-30T06:35:18.819Z,3.10
2019-05-30T06:37:47.944Z,2.77
2019-05-30T06:40:17.121Z,2.70
2019-05-30T06:42:46.228Z,2.47
2019-05-30T06:45:15.545Z,2.60
2019-05-30T06:47:44.616Z,3.57
2019-05-30T06:50:14.701Z,3.03
2019-05-30T06:52:44.648Z,4.17
2019-05-30T06:55:14.733Z,3.33
2019-05-30T06:57:44.802Z,2.13
2019-05-30T07:00:14.614Z,2.87
2019-05-30T07:02:43.714Z,2.80
2019-05-30T07:05:13.371Z,3.20
2019-05-30T07:07:43.148Z,2.80
2019-05-30T07:10:12.936Z,2.63
2019-05-30T07:12:42.001Z,2.00
2019-05-30T07:15:13.757Z,2.33
2019-05-30T07:17:43.543Z,2.00
2019-05-30T07:20:12.985Z,2.90
2019-05-30T07:22:41.976Z,2.83
2019-05-30T07:25:11.327Z,2.10
2019-05-30T07:27:40.427Z,2.27
2019-05-30T07:30:09.617Z,2.60
2019-05-30T07:32:38.704Z,2.43
2019-05-30T07:35:07.883Z,2.03
2019-05-30T07:37:37.128Z,2.50
2019-05-30T07:40:07.021Z,2.80
2019-05-30T07:42:36.244Z,2.60
2019-05-30T07:45:06.845Z,3.23
2019-05-30T07:47:35.903Z,2.63
2019-05-30T07:50:05.528Z,2.77
2019-05-30T07:52:34.856Z,2.70
2019-05-30T07:55:04.309Z,2.20
2019-05-30T07:57:34.384Z,2.90
2019-05-30T08:00:03.710Z,2.77
2019-05-30T08:02:33.632Z,2.23
2019-05-30T08:05:02.819Z,2.37
2019-05-30T08:07:32.698Z,2.57
2019-05-30T08:10:01.882Z,2.30
2019-05-30T08:12:32.041Z,2.60
2019-05-30T08:15:01.219Z,3.60
2019-05-30T08:17:31.490Z,2.90
2019-05-30T08:20:00.697Z,1.77
2019-05-30T08:22:29.981Z,2.10
2019-05-30T08:24:59.164Z,2.57
2019-05-30T08:27:28.312Z,2.00
2019-05-30T08:29:57.456Z,1.87
2019-05-30T08:32:26.590Z,2.10
2019-05-30T08:34:55.698Z,1.43
2019-05-30T08:37:24.885Z,2.00
2019-05-30T08:39:53.928Z,1.73
2019-05-30T08:42:23.014Z,1.83
2019-05-30T08:44:52.002Z,2.30
2019-05-30T08:47:21.047Z,1.40
2019-05-30T08:49:50.124Z,1.73
2019-05-30T08:52:19.157Z,2.10
2019-05-30T08:54:48.276Z,2.13
2019-05-30T08:57:17.330Z,1.87
2019-05-30T08:59:46.377Z,1.53
2019-05-30T09:02:15.508Z,1.57
2019-05-30T09:04:44.565Z,2.13
2019-05-30T09:07:13.660Z,2.07
2019-05-30T09:09:44.262Z,1.73
2019-05-30T09:12:13.553Z,1.60
2019-05-30T09:14:45.220Z,1.43
2019-05-30T09:17:14.354Z,1.70
2019-05-30T09:19:43.484Z,1.87
2019-05-30T09:22:12.596Z,1.67
2019-05-30T09:24:42.115Z,3.70
2019-05-30T09:27:11.468Z,2.10
2019-05-30T09:29:41.648Z,1.60
2019-05-30T09:32:11.345Z,2.10
2019-05-30T09:34:41.884Z,1.47
2019-05-30T09:37:11.282Z,1.50
2019-05-30T09:39:41.455Z,1.10
2019-05-30T09:42:10.848Z,1.30
2019-05-30T09:44:40.959Z,1.27
2019-05-30T09:47:10.772Z,1.60
2019-05-30T09:49:40.169Z,1.10
2019-05-30T09:52:10.570Z,1.63
2019-05-30T09:54:39.725Z,1.93
2019-05-30T09:57:08.791Z,1.20
2019-05-30T09:59:37.858Z,2.27
2019-05-30T10:02:07.630Z,1.80
2019-05-30T10:04:36.807Z,2.40
2019-05-30T10:07:05.933Z,2.30
2019-05-30T10:09:34.970Z,1.60
2019-05-30T10:12:04.075Z,1.30
2019-05-30T10:14:33.119Z,2.60
2019-05-30T10:17:02.257Z,1.70
2019-05-30T10:19:31.456Z,1.53
2019-05-30T10:22:00.726Z,1.50
2019-05-30T10:24:29.790Z,1.47
2019-05-30T10:26:58.830Z,1.33
2019-05-30T10:29:28.000Z,1.30
2019-05-30T10:31:57.057Z,1.23
2019-05-30T10:34:26.555Z,1.40
2019-05-30T10:36:55.815Z,1.70
2019-05-30T10:39:25.108Z,1.40
2019-05-30T10:41:54.118Z,1.53
2019-05-30T10:44:23.205Z,1.23
2019-05-30T10:46:52.858Z,1.73
2019-05-30T10:49:34.156Z,1.57
2019-05-30T10:51:57.156Z,1.47
2019-05-30T10:54:23.697Z,1.07
2019-05-30T10:56:53.658Z,2.03
2019-05-30T10:59:22.788Z,1.63
2019-05-30T11:01:53.029Z,1.77
2019-05-30T11:04:22.361Z,1.20
2019-05-30T11:07:11.319Z,1.13
2019-05-30T11:09:40.233Z,1.70
2019-05-30T11:12:09.343Z,1.50
2019-05-30T11:14:38.428Z,1.47
2019-05-30T11:17:07.496Z,1.63
2019-05-30T11:19:36.464Z,1.43
2019-05-30T11:22:05.644Z,1.40
2019-05-30T11:24:34.761Z,1.60
2019-05-30T11:27:03.892Z,1.30
2019-05-30T11:29:32.920Z,1.40
2019-05-30T11:32:01.994Z,1.50
2019-05-30T11:34:31.123Z,1.57
2019-05-30T11:39:31.056Z,1.40
2019-05-30T11:42:00.110Z,1.17
2019-05-30T11:44:29.274Z,1.97
2019-05-30T11:46:59.739Z,1.50
2019-05-30T11:49:29.222Z,1.63
2019-05-30T11:51:58.339Z,1.93
2019-05-30T11:54:27.377Z,1.83
2019-05-30T11:56:56.561Z,2.03
2019-05-30T11:59:25.731Z,1.43
2019-05-30T12:01:54.743Z,1.90
2019-05-30T12:04:23.825Z,1.57
2019-05-30T12:06:53.142Z,1.90
2019-05-30T12:09:22.374Z,2.83
2019-05-30T12:11:51.496Z,1.60
2019-05-30T12:14:21.445Z,1.33
2019-05-30T12:16:51.142Z,1.73
2019-05-30T12:19:20.351Z,1.73
2019-05-30T12:21:49.417Z,1.47
2019-05-30T12:24:18.372Z,2.67
2019-05-30T12:26:47.523Z,1.97
2019-05-30T12:29:16.677Z,1.57
2019-05-30T12:31:45.773Z,2.10
2019-05-30T12:34:14.923Z,2.33
2019-05-30T12:36:43.981Z,3.20
2019-05-30T12:39:13.165Z,2.33
2019-05-30T12:41:42.217Z,1.70
2019-05-30T12:44:11.300Z,2.40
2019-05-30T12:46:40.413Z,1.63
2019-05-30T12:49:09.458Z,2.03
2019-05-30T12:51:38.593Z,2.00
2019-05-30T12:54:07.781Z,2.20
2019-05-30T12:56:36.887Z,2.00
2019-05-30T12:59:07.082Z,1.50
2019-05-30T13:01:36.391Z,2.70
2019-05-30T13:04:05.601Z,2.67
2019-05-30T13:06:34.721Z,1.30
2019-05-30T13:09:04.989Z,1.50
2019-05-30T13:11:34.058Z,1.93
2019-05-30T13:14:03.256Z,2.03
2019-05-30T13:16:32.230Z,2.03
2019-05-30T13:19:02.255Z,1.90
2019-05-30T13:21:31.491Z,1.87
2019-05-30T13:24:01.782Z,1.50
2019-05-30T13:26:31.181Z,1.80
2019-05-30T13:29:00.371Z,1.97
2019-05-30T13:31:29.541Z,1.70
2019-05-30T13:33:58.758Z,1.93
2019-05-30T13:36:27.987Z,1.60
2019-05-30T13:38:57.122Z,2.10
2019-05-30T13:41:26.308Z,2.20
2019-05-30T13:43:55.584Z,2.03
2019-05-30T13:46:24.759Z,2.03
2019-05-30T13:48:53.897Z,2.17
2019-05-30T13:51:22.956Z,1.90
2019-05-30T13:53:52.080Z,1.60
2019-05-30T13:56:21.183Z,2.13
2019-05-30T13:58:50.189Z,2.10
2019-05-30T14:01:19.241Z,2.07
2019-05-30T14:03:48.361Z,1.50
2019-05-30T14:06:17.485Z,1.90
2019-05-30T14:08:50.627Z,2.10
2019-05-30T14:11:18.346Z,2.50
2019-05-30T14:13:47.400Z,1.87
2019-05-30T14:16:16.428Z,2.30
2019-05-30T14:18:45.577Z,2.20
2019-05-30T14:21:14.545Z,2.20
2019-05-30T14:23:43.572Z,2.60
2019-05-30T14:26:12.666Z,2.10
2019-05-30T14:28:41.748Z,3.90
2019-05-30T14:31:13.588Z,2.57
2019-05-30T14:33:41.519Z,2.43
2019-05-30T14:36:12.619Z,1.80
2019-05-30T14:38:56.792Z,1.77
2019-05-30T14:41:13.418Z,2.73
2019-05-30T14:43:42.588Z,1.87
2019-05-30T14:46:12.439Z,2.57
2019-05-30T14:48:41.705Z,2.07
2019-05-30T14:51:12.852Z,2.37
2019-05-30T14:53:41.562Z,2.60
2019-05-30T14:56:11.143Z,1.87
2019-05-30T14:58:40.429Z,2.40
2019-05-30T15:01:09.501Z,2.60
2019-05-30T15:03:38.633Z,2.30
2019-05-30T15:06:10.607Z,3.00
2019-05-30T15:08:38.472Z,2.40
2019-05-30T15:11:07.582Z,2.00
2019-05-30T15:13:36.505Z,2.30
2019-05-30T15:16:06.693Z,2.30
2019-05-30T15:18:35.899Z,2.33
2019-05-30T15:21:06.184Z,2.50
2019-05-30T15:23:35.525Z,3.20
2019-05-30T15:26:05.850Z,3.60
2019-05-30T15:28:35.049Z,3.67
2019-05-30T15:31:04.189Z,2.67
2019-05-30T15:33:33.247Z,3.27
2019-05-30T15:36:02.318Z,3.10
2019-05-30T15:38:31.448Z,2.50
2019-05-30T15:41:00.546Z,2.13
2019-05-30T15:43:29.605Z,2.73
2019-05-30T15:45:58.909Z,2.30
2019-05-30T15:48:28.028Z,2.67
2019-05-30T15:50:57.176Z,2.50
2019-05-30T15:53:26.326Z,2.97
2019-05-30T15:55:55.431Z,2.70
2019-05-30T15:58:24.552Z,3.20
2019-05-30T16:00:53.613Z,3.67
2019-05-30T16:03:22.677Z,2.73
2019-05-30T16:05:51.843Z,2.60
2019-05-30T16:08:21.005Z,4.17
2019-05-30T16:10:50.200Z,3.20
2019-05-30T16:13:19.496Z,2.80
2019-05-30T16:15:48.582Z,2.80
2019-05-30T16:18:17.791Z,2.10
2019-05-30T16:20:47.013Z,2.23
2019-05-30T16:23:16.600Z,2.47
2019-05-30T16:25:45.791Z,2.67
2019-05-30T16:28:15.767Z,2.63
2019-05-30T16:30:44.960Z,2.77
2019-05-30T16:33:14.205Z,2.50
2019-05-30T16:35:44.401Z,2.70
2019-05-30T16:38:13.977Z,3.00
2019-05-30T16:40:43.206Z,3.20
2019-05-30T16:43:16.234Z,2.80
2019-05-30T16:45:45.428Z,4.03
2019-05-30T16:48:14.589Z,2.90
2019-05-30T16:50:43.771Z,2.37
2019-05-30T16:53:12.889Z,2.80
2019-05-30T16:55:41.915Z,2.47
2019-05-30T16:58:10.976Z,2.30
2019-05-30T17:00:39.951Z,2.93
2019-05-30T17:03:09.369Z,2.60
2019-05-30T17:05:38.562Z,2.73
2019-05-30T17:08:07.853Z,2.40
2019-05-30T17:10:36.942Z,2.50
2019-05-30T17:13:06.062Z,2.00
2019-05-30T17:15:35.121Z,2.67
2019-05-30T17:18:04.334Z,2.63
2019-05-30T17:20:33.472Z,2.90
2019-05-30T17:23:02.454Z,3.00
2019-05-30T17:25:31.632Z,2.73
2019-05-30T17:28:00.700Z,3.03
2019-05-30T17:30:30.020Z,3.30
2019-05-30T17:32:59.096Z,3.30
2019-05-30T17:35:28.614Z,3.77
2019-05-30T17:37:57.807Z,3.60
2019-05-30T17:40:41.208Z,3.00
2019-05-30T17:42:57.698Z,3.57
2019-05-30T17:45:27.304Z,3.10
2019-05-30T17:48:07.638Z,3.13
2019-05-30T17:50:27.843Z,2.80
2019-05-30T17:52:57.107Z,2.87
2019-05-30T17:55:26.146Z,2.83
2019-05-30T17:57:55.117Z,2.80
2019-05-30T18:00:24.641Z,2.83
2019-05-30T18:02:53.735Z,3.23
2019-05-30T18:05:24.464Z,2.47
2019-05-30T18:07:53.870Z,3.33
2019-05-30T18:10:23.179Z,3.53
2019-05-30T18:12:52.285Z,3.20
2019-05-30T18:15:24.897Z,3.17
2019-05-30T18:17:52.524Z,2.30
2019-05-30T18:20:21.709Z,1.50
2019-05-30T18:22:50.990Z,2.47
2019-05-30T18:25:21.510Z,4.00
2019-05-30T18:27:50.692Z,1.90
2019-05-30T18:30:20.111Z,1.93
2019-05-30T18:32:49.290Z,1.90
2019-05-30T18:35:18.462Z,1.50
2019-05-30T18:37:47.680Z,1.90
2019-05-30T18:40:26.636Z,1.70
2019-05-30T18:42:55.700Z,1.63
2019-05-30T18:45:34.593Z,2.17
2019-05-30T18:48:03.797Z,2.07
2019-05-30T18:50:33.529Z,2.87
2019-05-30T18:53:02.707Z,2.50
2019-05-30T18:55:32.639Z,2.00
2019-05-30T18:58:01.755Z,2.17
2019-05-30T19:00:31.235Z,2.50
2019-05-30T19:03:00.466Z,2.60
2019-05-30T19:05:30.627Z,3.10
2019-05-30T19:08:01.752Z,3.10
2019-05-30T19:10:30.448Z,2.63
2019-05-30T19:12:59.461Z,2.60
2019-05-30T19:15:30.115Z,2.90
2019-05-30T19:17:59.537Z,2.60
2019-05-30T19:20:29.675Z,2.67
2019-05-30T19:22:59.972Z,2.70
2019-05-30T19:25:29.436Z,2.90
2019-05-30T19:27:58.602Z,2.43
2019-05-30T19:30:28.514Z,2.40
2019-05-30T19:32:57.648Z,2.60
2019-05-30T19:35:27.032Z,2.77
2019-05-30T19:37:56.129Z,2.13
2019-05-30T19:40:25.169Z,2.50
2019-05-30T19:42:54.305Z,5.37
2019-05-30T19:45:23.709Z,2.80
2019-05-30T19:47:52.743Z,2.63
2019-05-30T19:50:22.390Z,2.70
2019-05-30T19:52:52.199Z,2.83
2019-05-30T19:55:21.809Z,2.90
2019-05-30T19:57:51.018Z,3.33
2019-05-30T20:00:20.467Z,3.00
2019-05-30T20:02:49.530Z,3.20
2019-05-30T20:05:18.832Z,2.60
2019-05-30T20:07:47.897Z,3.20
2019-05-30T20:10:17.416Z,2.43
2019-05-30T20:12:46.571Z,2.90
2019-05-30T20:15:15.887Z,2.70
2019-05-30T20:17:45.017Z,3.20
2019-05-30T20:20:15.459Z,3.23
2019-05-30T20:22:44.424Z,3.17
2019-05-30T20:25:14.651Z,2.90
2019-05-30T20:27:43.711Z,3.90
2019-05-30T20:30:14.531Z,3.00
2019-05-30T20:32:43.550Z,2.90
2019-05-30T20:35:12.999Z,2.67
2019-05-30T20:37:42.939Z,3.30
2019-05-30T20:40:14.051Z,2.60
2019-05-30T20:42:43.170Z,3.23
2019-05-30T20:45:12.453Z,3.47
2019-05-30T20:47:43.071Z,3.33
2019-05-30T20:50:15.050Z,3.10
2019-05-30T20:52:45.624Z,3.57
2019-05-30T20:55:15.638Z,3.77
2019-05-30T20:57:44.783Z,3.30
2019-05-30T21:00:16.220Z,3.77
2019-05-30T21:02:45.272Z,3.73
2019-05-30T21:05:14.794Z,3.63
2019-05-30T21:07:44.397Z,3.80
2019-05-30T21:10:14.009Z,3.50
2019-05-30T21:12:46.841Z,4.10
2019-05-30T21:15:15.431Z,5.23
2019-05-30T21:17:46.463Z,2.80
2019-05-30T21:20:15.844Z,3.40
2019-05-30T21:22:44.996Z,3.40
2019-05-30T21:25:14.293Z,3.50
2019-05-30T21:27:43.264Z,3.07
2019-05-30T21:30:12.811Z,3.77
2019-05-30T21:32:42.800Z,4.37
2019-05-30T21:35:13.081Z,3.73
2019-05-30T21:37:42.340Z,4.63
2019-05-30T21:40:11.849Z,4.00
2019-05-30T21:42:58.277Z,3.40
2019-05-30T21:45:12.420Z,3.80
2019-05-30T21:47:42.665Z,3.80
2019-05-30T21:50:12.399Z,4.40
2019-05-30T21:52:41.626Z,4.73
2019-05-30T21:55:10.850Z,4.57
2019-05-30T21:57:39.961Z,4.10
2019-05-30T22:00:11.282Z,5.30
2019-05-30T22:02:40.742Z,3.97
2019-05-30T22:05:09.971Z,4.60
2019-05-30T22:07:39.185Z,4.07
2019-05-30T22:10:08.362Z,4.07
2019-05-30T22:12:37.629Z,4.20
2019-05-30T22:15:06.917Z,4.13
2019-05-30T22:17:35.975Z,4.23
2019-05-30T22:20:05.695Z,4.47
2019-05-30T22:22:34.828Z,4.43
2019-05-30T22:25:04.409Z,4.60
2019-05-30T22:27:33.428Z,3.97
2019-05-30T22:30:02.474Z,4.43
2019-05-30T22:32:31.457Z,3.70
2019-05-30T22:35:00.592Z,3.50
2019-05-30T22:37:29.715Z,4.10
2019-05-30T22:39:58.728Z,4.03
2019-05-30T22:42:27.766Z,4.80
2019-05-30T22:44:57.049Z,3.83
2019-05-30T22:47:26.082Z,4.20
2019-05-30T22:49:55.033Z,4.13
2019-05-30T22:52:24.177Z,4.10
2019-05-30T22:54:53.321Z,5.00
2019-05-30T22:57:22.424Z,4.20
2019-05-30T22:59:51.444Z,4.70
2019-05-30T23:02:20.581Z,4.40
2019-05-30T23:04:50.108Z,4.90
2019-05-30T23:07:19.272Z,4.27
2019-05-30T23:09:49.346Z,4.13
2019-05-30T23:12:18.567Z,4.57
2019-05-30T23:14:48.012Z,4.30
2019-05-30T23:17:17.157Z,4.13
2019-05-30T23:19:46.575Z,4.17
2019-05-30T23:22:15.661Z,5.17
2019-05-30T23:24:44.653Z,3.90
2019-05-30T23:27:13.698Z,4.00
2019-05-30T23:29:42.791Z,4.80
2019-05-30T23:32:11.837Z,4.33
2019-05-30T23:34:40.801Z,4.47
2019-05-30T23:37:09.894Z,4.57
2019-05-30T23:39:38.959Z,4.40
2019-05-30T23:42:07.993Z,4.33
2019-05-30T23:44:37.025Z,3.90
2019-05-30T23:47:06.168Z,4.37
2019-05-30T23:49:35.144Z,4.13
2019-05-30T23:52:04.177Z,4.10
2019-05-30T23:54:33.278Z,4.33
2019-05-30T23:57:02.372Z,4.20
2019-05-30T23:59:31.397Z,4.72
